WetterOnline ( https://www.wetteronline.de )

Wetter aktuell Gladbeck

Aktuelles Wetter: Essen (161m)

6-stündlich | Neueste Meldungen
Ortszeit Temperatur Wetter
So, 14.04. 2:00 17.2° C wolkig
Sa, 13.04. 20:00 21.6° C wolkig
Sa, 13.04. 14:00 21.2° C wolkig
Sa, 13.04. 8:00 13.9° C bedeckt
Sa, 13.04. 2:00 15.3° C bedeckt
Fr, 12.04. 20:00 18.4° C bewölkt
Fr, 12.04. 14:00 17.5° C bedeckt
Fr, 12.04. 8:00 12.4° C Sprühregen
Ortszeit Temperatur Wetter
So, 14.04. 2:30 16.1° C wolkig
So, 14.04. 2:20 16.1° C wolkig
So, 14.04. 2:10 16.6° C bedeckt
So, 14.04. 2:00 17.2° C wolkig
So, 14.04. 1:50 17.2° C wolkig
So, 14.04. 1:40 17.5° C wolkig
So, 14.04. 1:30 17.8° C leicht bewölkt
So, 14.04. 1:00 18.6° C wolkig
So, 14.04. 0:30 19.2° C bewölkt
So, 14.04. 0:00 19.1° C wolkig
Sa, 13.04. 23:30 19.1° C leicht bewölkt
Ortszeit Relative Feuchte Sichtweite
So, 14.04. 2:00 50% 40 km
Sa, 13.04. 20:00 54% 40 km
Sa, 13.04. 14:00 61% 50 km
Sa, 13.04. 8:00 85% 30 km
Sa, 13.04. 2:00 80% 35 km
Fr, 12.04. 20:00 68% 40 km
Fr, 12.04. 14:00 74% 50 km
Fr, 12.04. 8:00 96% 8 km
Ortszeit Relative Feuchte Sichtweite
So, 14.04. 2:30 45% 55 km
So, 14.04. 2:20 45% -
So, 14.04. 2:10 44% -
So, 14.04. 2:00 50% 40 km
So, 14.04. 1:50 50% -
So, 14.04. 1:40 60% -
So, 14.04. 1:30 73% 40 km
So, 14.04. 1:00 70% 45 km
So, 14.04. 0:30 68% 45 km
So, 14.04. 0:00 68% 45 km
Sa, 13.04. 23:30 67% 50 km
Ortszeit Niederschlagsmenge Niederschlagsart
So, 14.04. 2:00 0.0 l/m2 in 6 Std. -
Sa, 13.04. 20:00 0.0 l/m2 in 12 Std. -
Sa, 13.04. 14:00 0.0 l/m2 in 6 Std. -
Sa, 13.04. 8:00 0.0 l/m2 in 12 Std. -
Sa, 13.04. 2:00 0.0 l/m2 in 6 Std. -
Fr, 12.04. 20:00 0.1 l/m2 in 12 Std. -
Fr, 12.04. 14:00 0.1 l/m2 in 6 Std. Sprühregen
Fr, 12.04. 8:00 0.1 l/m2 in 12 Std. Sprühregen
Ortszeit Niederschlagsmenge Niederschlagsart
So, 14.04. 2:30 0.0 l/m2 in 30 Min -
So, 14.04. 2:20 keine Meldung -
So, 14.04. 2:10 keine Meldung -
So, 14.04. 2:00 0.0 l/m2 in 1 Std. -
So, 14.04. 1:50 keine Meldung -
So, 14.04. 1:40 keine Meldung -
So, 14.04. 1:30 0.0 l/m2 in 30 Min -
So, 14.04. 1:00 0.0 l/m2 in 1 Std. -
So, 14.04. 0:30 0.0 l/m2 in 30 Min -
So, 14.04. 0:00 0.0 l/m2 in 1 Std. -
Sa, 13.04. 23:30 0.0 l/m2 in 30 Min -
Ortszeit Stärke Spitze Richtung
km/h Bft. km/h Grad Sektor
So, 14.04. 2:00 14 3 32 260° W
Sa, 13.04. 20:00 11 2 36 230° SW
Sa, 13.04. 14:00 18 3 40 210° SW
Sa, 13.04. 8:00 11 2 25 210° SW
Sa, 13.04. 2:00 11 2 25 210° SW
Fr, 12.04. 20:00 15 3 35 220° SW
Fr, 12.04. 14:00 15 3 28 210° SW
Fr, 12.04. 8:00 14 3 25 220° SW
Ortszeit Stärke Spitze Richtung
km/h Bft. km/h Grad Sektor
So, 14.04. 2:30 11 2 32 260° W
So, 14.04. 2:20 11 2 - 260° W
So, 14.04. 2:10 14 3 - 260° W
So, 14.04. 2:00 14 3 32 260° W
So, 14.04. 1:50 14 3 - 260° W
So, 14.04. 1:40 17 3 - 250° W
So, 14.04. 1:30 14 3 32 240° SW
So, 14.04. 1:00 14 3 32 240° SW
So, 14.04. 0:30 18 3 29 230° SW
So, 14.04. 0:00 14 3 29 220° SW
Sa, 13.04. 23:30 14 3 29 220° SW
Ortszeit Untergrenze Bedeckung Gattung
total tief tief mittel hoch
So, 14.04. 2:00 8700 m 7/8 0/8 - - -
Sa, 13.04. 20:00 7200 m 8/8 0/8 - - -
Sa, 13.04. 14:00 1110 m 7/8 3/8 - - -
Sa, 13.04. 8:00 6300 m 8/8 8/8 - - -
Sa, 13.04. 2:00 6600 m 8/8 8/8 - - -
Fr, 12.04. 20:00 1470 m 7/8 6/8 - - -
Fr, 12.04. 14:00 690 m 8/8 8/8 - - -
Fr, 12.04. 8:00 150 m 8/8 8/8 - - -
Ortszeit Bedeckungsgrad in Achtel und Wolkenuntergrenze
So, 14.04. 2:30 8(8700m)
So, 14.04. 2:20 8(8700m)
So, 14.04. 2:10 8
So, 14.04. 2:00 7(8700m)
So, 14.04. 1:50 7(8700m)
So, 14.04. 1:40 6
So, 14.04. 1:30 3(9000m)
So, 14.04. 1:00 3(1200m) 4(1440m) 5(9000m)
So, 14.04. 0:30 7(1380m) 8(9000m)
So, 14.04. 0:00 1(1500m) 4(9000m) 7(9000m)
Sa, 13.04. 23:30 6(8100m)
Ortszeit Luftdruck NN (hPa) Tendenz (hPa in 3 Std.)
So, 14.04. 2:00 1020 + 0,4
Sa, 13.04. 20:00 1019 - 1,6
Sa, 13.04. 14:00 1024 - 2,3
Sa, 13.04. 8:00 1027 + 0,1
Sa, 13.04. 2:00 1028 - 0,1
Fr, 12.04. 20:00 1028 - 1,1
Fr, 12.04. 14:00 1031 - 0,9
Fr, 12.04. 8:00 1032 + 0,1
Ortszeit Luftdruck NN (hPa) Tendenz (hPa in 3 Std.)
So, 14.04. 2:30 1020 + 0,7
So, 14.04. 2:20 1020 keine Meldung
So, 14.04. 2:10 1020 keine Meldung
So, 14.04. 2:00 1020 + 0,4
So, 14.04. 1:50 1020 keine Meldung
So, 14.04. 1:40 1020 keine Meldung
So, 14.04. 1:30 1019 + 0,2
So, 14.04. 1:00 1019 0,0
So, 14.04. 0:30 1019 - 0,4
So, 14.04. 0:00 1019 - 0,2
Sa, 13.04. 23:30 1019 - 0,2
Ortszeit Schneehöhe (cm)
So, 14.04. 2:00 0
Sa, 13.04. 20:00 0
Sa, 13.04. 14:00 0
Sa, 13.04. 8:00 0
Sa, 13.04. 2:00 0
Fr, 12.04. 20:00 0
Fr, 12.04. 14:00 0
Fr, 12.04. 8:00 0
Ortszeit Schneehöhe (cm)
So, 14.04. 2:30 0
So, 14.04. 2:20 0
So, 14.04. 2:10 -
So, 14.04. 2:00 0
So, 14.04. 1:50 0
So, 14.04. 1:40 -
So, 14.04. 1:30 0
So, 14.04. 1:00 0
So, 14.04. 0:30 0
So, 14.04. 0:00 0
Sa, 13.04. 23:30 0
Link zu dieser Seite / Seite empfehlen

Das Wetter in ...